Terminal Aerodrome Forecast
Issued by NWS Jacksonville, FL

Home | Current Version | Previous Version | Text Only | Print | Product List | Glossary On
Versions: 1 2 3 4 5 6 7 8 9 10 11 12 13 14 15 16 17 18 19 20
000
FTUS42 KJAX 260520
TAFGNV
TAF
KGNV 260520Z 2606/2706 11004KT P6SM SCT025
      TEMPO 2609/2613 3SM BR BKN015
     FM261300 12006KT P6SM BKN025
     FM261700 13008KT P6SM VCTS BKN035CB
     FM262300 12007KT P6SM SCT040 BKN250=

USA.gov is the U.S. government's official web portal to all federal, state and local government web resources and services.